Terminal Aerodrome Forecast
Issued by NWS St Louis, MO

Home | Current Version | Previous Version | Text Only | Print | Product List | Glossary On
Versions: 1 2 3 4 5 6 7 8 9 10 11 12 13 14 15 16 17 18 19 20 21 22 23 24 25 26 27 28 29 30
775
FTUS43 KLSX 261121
TAFCOU
TAF
KCOU 261121Z 2612/2712 VRB07KT P6SM -SHRA SCT040 BKN090
     FM261500 18010KT P6SM BKN250
     FM270400 17009KT 5SM -TSRA BKN040CB
     FM270900 15008KT P6SM BKN100=

USA.gov is the U.S. government's official web portal to all federal, state and local government web resources and services.